sensor_id;sensor_type;location;lat;lon;timestamp;temperature;humidity
47354;DHT22;50657;48.830;2.282;2022-08-27T00:00:20;27.50;41.80
47354;DHT22;50657;48.830;2.282;2022-08-27T00:02:48;27.50;41.90
47354;DHT22;50657;48.830;2.282;2022-08-27T00:05:16;27.40;41.90
47354;DHT22;50657;48.830;2.282;2022-08-27T00:07:46;27.40;42.00
47354;DHT22;50657;48.830;2.282;2022-08-27T00:10:16;27.30;42.10
47354;DHT22;50657;48.830;2.282;2022-08-27T00:12:43;27.30;42.10
47354;DHT22;50657;48.830;2.282;2022-08-27T00:15:11;27.30;42.20
47354;DHT22;50657;48.830;2.282;2022-08-27T00:17:40;27.30;42.30
47354;DHT22;50657;48.830;2.282;2022-08-27T00:20:07;27.20;42.30
47354;DHT22;50657;48.830;2.282;2022-08-27T00:22:34;27.20;42.40
47354;DHT22;50657;48.830;2.282;2022-08-27T00:25:04;27.20;42.40
47354;DHT22;50657;48.830;2.282;2022-08-27T00:27:32;27.10;42.50
47354;DHT22;50657;48.830;2.282;2022-08-27T00:29:59;27.10;42.50
47354;DHT22;50657;48.830;2.282;2022-08-27T00:32:26;27.00;42.50
47354;DHT22;50657;48.830;2.282;2022-08-27T00:34:53;27.00;42.70
47354;DHT22;50657;48.830;2.282;2022-08-27T00:37:20;27.00;42.80
47354;DHT22;50657;48.830;2.282;2022-08-27T00:39:47;26.90;42.80
47354;DHT22;50657;48.830;2.282;2022-08-27T00:42:15;26.90;43.20
47354;DHT22;50657;48.830;2.282;2022-08-27T00:44:42;26.80;42.90
47354;DHT22;50657;48.830;2.282;2022-08-27T00:47:12;26.80;43.00
47354;DHT22;50657;48.830;2.282;2022-08-27T00:49:44;26.70;43.10
47354;DHT22;50657;48.830;2.282;2022-08-27T00:52:18;26.70;43.20
47354;DHT22;50657;48.830;2.282;2022-08-27T00:54:47;26.70;43.30
47354;DHT22;50657;48.830;2.282;2022-08-27T00:57:16;26.60;43.30
47354;DHT22;50657;48.830;2.282;2022-08-27T00:59:44;26.60;43.40
47354;DHT22;50657;48.830;2.282;2022-08-27T01:02:11;26.50;43.40
47354;DHT22;50657;48.830;2.282;2022-08-27T01:04:47;26.50;43.50
47354;DHT22;50657;48.830;2.282;2022-08-27T01:07:15;26.50;43.70
47354;DHT22;50657;48.830;2.282;2022-08-27T01:09:45;26.40;43.80
47354;DHT22;50657;48.830;2.282;2022-08-27T01:12:12;26.30;43.70
47354;DHT22;50657;48.830;2.282;2022-08-27T01:14:42;26.30;43.80
47354;DHT22;50657;48.830;2.282;2022-08-27T01:17:11;26.30;44.00
47354;DHT22;50657;48.830;2.282;2022-08-27T01:19:43;26.20;44.00
47354;DHT22;50657;48.830;2.282;2022-08-27T01:22:17;26.20;44.20
47354;DHT22;50657;48.830;2.282;2022-08-27T01:24:51;26.20;44.30
47354;DHT22;50657;48.830;2.282;2022-08-27T01:27:24;26.10;44.30
47354;DHT22;50657;48.830;2.282;2022-08-27T01:29:51;26.10;44.40
47354;DHT22;50657;48.830;2.282;2022-08-27T01:32:20;26.10;44.50
47354;DHT22;50657;48.830;2.282;2022-08-27T01:34:48;26.10;44.60
47354;DHT22;50657;48.830;2.282;2022-08-27T01:37:18;26.00;44.60
47354;DHT22;50657;48.830;2.282;2022-08-27T01:39:46;26.00;44.70
47354;DHT22;50657;48.830;2.282;2022-08-27T01:42:17;26.00;44.70
47354;DHT22;50657;48.830;2.282;2022-08-27T01:44:47;25.90;45.30
47354;DHT22;50657;48.830;2.282;2022-08-27T01:47:16;25.90;44.80
47354;DHT22;50657;48.830;2.282;2022-08-27T01:49:44;25.90;44.80
47354;DHT22;50657;48.830;2.282;2022-08-27T01:52:12;25.90;44.90
47354;DHT22;50657;48.830;2.282;2022-08-27T01:54:39;25.80;44.90
47354;DHT22;50657;48.830;2.282;2022-08-27T01:57:06;25.80;45.00
47354;DHT22;50657;48.830;2.282;2022-08-27T01:59:36;25.80;45.00
47354;DHT22;50657;48.830;2.282;2022-08-27T02:02:04;25.80;45.70
47354;DHT22;50657;48.830;2.282;2022-08-27T02:04:31;25.70;45.10
47354;DHT22;50657;48.830;2.282;2022-08-27T02:06:58;25.70;45.10
47354;DHT22;50657;48.830;2.282;2022-08-27T02:09:25;25.70;45.20
47354;DHT22;50657;48.830;2.282;2022-08-27T02:11:52;25.70;45.30
47354;DHT22;50657;48.830;2.282;2022-08-27T02:14:19;25.70;45.30
47354;DHT22;50657;48.830;2.282;2022-08-27T02:16:49;25.60;45.30
47354;DHT22;50657;48.830;2.282;2022-08-27T02:19:16;25.60;45.40
47354;DHT22;50657;48.830;2.282;2022-08-27T02:21:43;25.60;45.50
47354;DHT22;50657;48.830;2.282;2022-08-27T02:24:10;25.60;45.50
47354;DHT22;50657;48.830;2.282;2022-08-27T02:26:38;25.60;45.50
47354;DHT22;50657;48.830;2.282;2022-08-27T02:29:05;25.60;46.20
47354;DHT22;50657;48.830;2.282;2022-08-27T02:31:33;25.60;45.70
47354;DHT22;50657;48.830;2.282;2022-08-27T02:34:01;25.50;45.60
47354;DHT22;50657;48.830;2.282;2022-08-27T02:36:29;25.50;45.60
47354;DHT22;50657;48.830;2.282;2022-08-27T02:38:56;25.50;45.70
47354;DHT22;50657;48.830;2.282;2022-08-27T02:41:23;25.50;45.70
47354;DHT22;50657;48.830;2.282;2022-08-27T02:43:50;25.50;45.70
47354;DHT22;50657;48.830;2.282;2022-08-27T02:46:17;25.50;46.40
47354;DHT22;50657;48.830;2.282;2022-08-27T02:48:44;25.40;45.70
47354;DHT22;50657;48.830;2.282;2022-08-27T02:51:12;25.40;45.80
47354;DHT22;50657;48.830;2.282;2022-08-27T02:53:39;25.40;46.50
47354;DHT22;50657;48.830;2.282;2022-08-27T02:56:09;25.40;45.90
47354;DHT22;50657;48.830;2.282;2022-08-27T02:58:36;25.30;45.90
47354;DHT22;50657;48.830;2.282;2022-08-27T03:01:03;25.30;46.00
47354;DHT22;50657;48.830;2.282;2022-08-27T03:03:30;25.30;46.00
47354;DHT22;50657;48.830;2.282;2022-08-27T03:05:58;25.30;46.10
47354;DHT22;50657;48.830;2.282;2022-08-27T03:08:27;25.20;46.10
47354;DHT22;50657;48.830;2.282;2022-08-27T03:10:55;25.30;46.20
47354;DHT22;50657;48.830;2.282;2022-08-27T03:13:22;25.20;46.20
47354;DHT22;50657;48.830;2.282;2022-08-27T03:15:51;25.20;46.20
47354;DHT22;50657;48.830;2.282;2022-08-27T03:18:18;25.20;46.30
47354;DHT22;50657;48.830;2.282;2022-08-27T03:20:47;25.20;46.40
47354;DHT22;50657;48.830;2.282;2022-08-27T03:23:16;25.20;46.40
47354;DHT22;50657;48.830;2.282;2022-08-27T03:25:48;25.10;46.40
47354;DHT22;50657;48.830;2.282;2022-08-27T03:28:16;25.10;46.50
47354;DHT22;50657;48.830;2.282;2022-08-27T03:30:47;25.10;46.50
47354;DHT22;50657;48.830;2.282;2022-08-27T03:33:17;25.10;46.60
47354;DHT22;50657;48.830;2.282;2022-08-27T03:35:45;25.00;46.60
47354;DHT22;50657;48.830;2.282;2022-08-27T03:38:12;25.00;46.70
47354;DHT22;50657;48.830;2.282;2022-08-27T03:40:40;25.00;46.70
47354;DHT22;50657;48.830;2.282;2022-08-27T03:43:09;25.00;46.70
47354;DHT22;50657;48.830;2.282;2022-08-27T03:45:37;25.00;46.80
47354;DHT22;50657;48.830;2.282;2022-08-27T03:48:04;24.90;46.80
47354;DHT22;50657;48.830;2.282;2022-08-27T03:50:32;24.90;46.80
47354;DHT22;50657;48.830;2.282;2022-08-27T03:52:59;24.90;46.90
47354;DHT22;50657;48.830;2.282;2022-08-27T03:55:26;24.90;46.90
47354;DHT22;50657;48.830;2.282;2022-08-27T03:57:53;24.90;47.00
47354;DHT22;50657;48.830;2.282;2022-08-27T04:00:22;24.90;47.10
47354;DHT22;50657;48.830;2.282;2022-08-27T04:02:50;24.90;47.20
47354;DHT22;50657;48.830;2.282;2022-08-27T04:05:17;24.80;47.20
47354;DHT22;50657;48.830;2.282;2022-08-27T04:07:44;24.80;47.20
47354;DHT22;50657;48.830;2.282;2022-08-27T04:10:13;24.80;47.20
47354;DHT22;50657;48.830;2.282;2022-08-27T04:12:40;24.80;47.20
47354;DHT22;50657;48.830;2.282;2022-08-27T04:15:09;24.80;47.90
47354;DHT22;50657;48.830;2.282;2022-08-27T04:17:38;24.70;47.30
47354;DHT22;50657;48.830;2.282;2022-08-27T04:20:07;24.70;47.30
47354;DHT22;50657;48.830;2.282;2022-08-27T04:22:35;24.70;47.40
47354;DHT22;50657;48.830;2.282;2022-08-27T04:25:02;24.70;47.50
47354;DHT22;50657;48.830;2.282;2022-08-27T04:27:30;24.70;47.50
47354;DHT22;50657;48.830;2.282;2022-08-27T04:29:58;24.70;47.50
47354;DHT22;50657;48.830;2.282;2022-08-27T04:32:25;24.60;47.40
47354;DHT22;50657;48.830;2.282;2022-08-27T04:34:54;24.60;47.40
47354;DHT22;50657;48.830;2.282;2022-08-27T04:37:22;24.60;47.40
47354;DHT22;50657;48.830;2.282;2022-08-27T04:39:50;24.50;47.40
47354;DHT22;50657;48.830;2.282;2022-08-27T04:42:17;24.50;47.50
47354;DHT22;50657;48.830;2.282;2022-08-27T04:44:45;24.50;47.60
47354;DHT22;50657;48.830;2.282;2022-08-27T04:47:14;24.40;47.60
47354;DHT22;50657;48.830;2.282;2022-08-27T04:49:41;24.40;47.70
47354;DHT22;50657;48.830;2.282;2022-08-27T04:52:10;24.40;47.80
47354;DHT22;50657;48.830;2.282;2022-08-27T04:54:37;24.30;48.40
47354;DHT22;50657;48.830;2.282;2022-08-27T04:57:05;24.30;47.80
47354;DHT22;50657;48.830;2.282;2022-08-27T04:59:33;24.20;47.90
47354;DHT22;50657;48.830;2.282;2022-08-27T05:02:01;24.20;47.90
47354;DHT22;50657;48.830;2.282;2022-08-27T05:04:28;24.20;48.00
47354;DHT22;50657;48.830;2.282;2022-08-27T05:06:55;24.20;48.00
47354;DHT22;50657;48.830;2.282;2022-08-27T05:09:23;24.20;48.10
47354;DHT22;50657;48.830;2.282;2022-08-27T05:11:51;24.10;48.20
47354;DHT22;50657;48.830;2.282;2022-08-27T05:14:19;24.10;48.20
47354;DHT22;50657;48.830;2.282;2022-08-27T05:16:47;24.10;48.30
47354;DHT22;50657;48.830;2.282;2022-08-27T05:19:14;24.10;48.40
47354;DHT22;50657;48.830;2.282;2022-08-27T05:21:45;24.00;48.40
47354;DHT22;50657;48.830;2.282;2022-08-27T05:24:14;24.00;48.70
47354;DHT22;50657;48.830;2.282;2022-08-27T05:26:43;24.00;48.50
47354;DHT22;50657;48.830;2.282;2022-08-27T05:29:11;24.00;48.50
47354;DHT22;50657;48.830;2.282;2022-08-27T05:31:39;23.90;48.50
47354;DHT22;50657;48.830;2.282;2022-08-27T05:34:06;23.90;48.50
47354;DHT22;50657;48.830;2.282;2022-08-27T05:36:34;23.90;48.60
47354;DHT22;50657;48.830;2.282;2022-08-27T05:39:04;23.90;48.70
47354;DHT22;50657;48.830;2.282;2022-08-27T05:41:32;23.80;48.70
47354;DHT22;50657;48.830;2.282;2022-08-27T05:44:03;23.80;48.70
47354;DHT22;50657;48.830;2.282;2022-08-27T05:46:31;23.80;48.80
47354;DHT22;50657;48.830;2.282;2022-08-27T05:48:59;23.80;48.80
47354;DHT22;50657;48.830;2.282;2022-08-27T05:51:28;23.80;48.80
47354;DHT22;50657;48.830;2.282;2022-08-27T05:53:57;23.80;48.80
47354;DHT22;50657;48.830;2.282;2022-08-27T05:56:28;23.70;48.90
47354;DHT22;50657;48.830;2.282;2022-08-27T05:58:56;23.80;48.80
47354;DHT22;50657;48.830;2.282;2022-08-27T06:01:45;23.70;48.80
47354;DHT22;50657;48.830;2.282;2022-08-27T06:04:13;23.70;48.80
47354;DHT22;50657;48.830;2.282;2022-08-27T06:06:42;23.70;48.90
47354;DHT22;50657;48.830;2.282;2022-08-27T06:09:11;23.70;48.90
47354;DHT22;50657;48.830;2.282;2022-08-27T06:11:38;23.70;48.90
47354;DHT22;50657;48.830;2.282;2022-08-27T06:14:06;23.70;48.90
47354;DHT22;50657;48.830;2.282;2022-08-27T06:16:35;23.70;49.00
47354;DHT22;50657;48.830;2.282;2022-08-27T06:19:04;23.70;49.10
47354;DHT22;50657;48.830;2.282;2022-08-27T06:21:32;23.60;49.00
47354;DHT22;50657;48.830;2.282;2022-08-27T06:23:59;23.60;49.00
47354;DHT22;50657;48.830;2.282;2022-08-27T06:26:26;23.60;49.00
47354;DHT22;50657;48.830;2.282;2022-08-27T06:28:54;23.60;49.00
47354;DHT22;50657;48.830;2.282;2022-08-27T06:31:22;23.60;49.00
47354;DHT22;50657;48.830;2.282;2022-08-27T06:33:50;23.60;49.10
47354;DHT22;50657;48.830;2.282;2022-08-27T06:36:21;23.60;49.10
47354;DHT22;50657;48.830;2.282;2022-08-27T06:38:49;23.60;49.10
47354;DHT22;50657;48.830;2.282;2022-08-27T06:41:19;23.60;49.10
47354;DHT22;50657;48.830;2.282;2022-08-27T06:43:47;23.60;49.10
47354;DHT22;50657;48.830;2.282;2022-08-27T06:46:16;23.60;49.10
47354;DHT22;50657;48.830;2.282;2022-08-27T06:48:44;23.60;49.70
47354;DHT22;50657;48.830;2.282;2022-08-27T06:51:14;23.60;49.20
47354;DHT22;50657;48.830;2.282;2022-08-27T06:53:45;23.60;49.80
47354;DHT22;50657;48.830;2.282;2022-08-27T06:56:14;23.60;49.20
47354;DHT22;50657;48.830;2.282;2022-08-27T06:58:41;23.70;49.20
47354;DHT22;50657;48.830;2.282;2022-08-27T07:01:13;23.70;49.20
47354;DHT22;50657;48.830;2.282;2022-08-27T07:03:41;23.70;49.30
47354;DHT22;50657;48.830;2.282;2022-08-27T07:06:10;23.70;49.30
47354;DHT22;50657;48.830;2.282;2022-08-27T07:08:37;23.70;49.30
47354;DHT22;50657;48.830;2.282;2022-08-27T07:11:07;23.70;49.20
47354;DHT22;50657;48.830;2.282;2022-08-27T07:13:36;23.70;49.30
47354;DHT22;50657;48.830;2.282;2022-08-27T07:16:04;23.70;49.20
47354;DHT22;50657;48.830;2.282;2022-08-27T07:18:32;23.70;49.20
47354;DHT22;50657;48.830;2.282;2022-08-27T07:20:59;23.70;49.20
47354;DHT22;50657;48.830;2.282;2022-08-27T07:23:29;23.80;49.10
47354;DHT22;50657;48.830;2.282;2022-08-27T07:25:57;23.80;49.10
47354;DHT22;50657;48.830;2.282;2022-08-27T07:28:26;23.80;49.00
47354;DHT22;50657;48.830;2.282;2022-08-27T07:30:53;23.80;49.00
47354;DHT22;50657;48.830;2.282;2022-08-27T07:33:21;23.90;49.00
47354;DHT22;50657;48.830;2.282;2022-08-27T07:35:49;23.90;48.90
47354;DHT22;50657;48.830;2.282;2022-08-27T07:38:16;23.90;48.90
47354;DHT22;50657;48.830;2.282;2022-08-27T07:40:44;23.90;48.80
47354;DHT22;50657;48.830;2.282;2022-08-27T07:43:12;24.00;48.80
47354;DHT22;50657;48.830;2.282;2022-08-27T07:46:00;24.00;48.70
47354;DHT22;50657;48.830;2.282;2022-08-27T07:48:27;24.00;48.60
47354;DHT22;50657;48.830;2.282;2022-08-27T07:50:55;24.00;48.60
47354;DHT22;50657;48.830;2.282;2022-08-27T07:53:23;24.10;48.60
47354;DHT22;50657;48.830;2.282;2022-08-27T07:55:50;24.10;48.60
47354;DHT22;50657;48.830;2.282;2022-08-27T07:58:17;24.20;48.50
47354;DHT22;50657;48.830;2.282;2022-08-27T08:01:00;24.20;48.50
47354;DHT22;50657;48.830;2.282;2022-08-27T08:03:27;24.20;48.50
47354;DHT22;50657;48.830;2.282;2022-08-27T08:05:55;24.20;48.40
47354;DHT22;50657;48.830;2.282;2022-08-27T08:08:23;24.20;48.40
47354;DHT22;50657;48.830;2.282;2022-08-27T08:10:50;24.20;48.40
47354;DHT22;50657;48.830;2.282;2022-08-27T08:13:18;24.30;48.40
47354;DHT22;50657;48.830;2.282;2022-08-27T08:15:46;24.30;48.30
47354;DHT22;50657;48.830;2.282;2022-08-27T08:18:14;24.30;48.10
47354;DHT22;50657;48.830;2.282;2022-08-27T08:20:41;24.40;48.10
47354;DHT22;50657;48.830;2.282;2022-08-27T08:23:08;24.40;48.10
47354;DHT22;50657;48.830;2.282;2022-08-27T08:25:35;24.40;47.90
47354;DHT22;50657;48.830;2.282;2022-08-27T08:28:03;24.40;48.00
47354;DHT22;50657;48.830;2.282;2022-08-27T08:30:30;24.50;48.20
47354;DHT22;50657;48.830;2.282;2022-08-27T08:32:58;24.60;48.40
47354;DHT22;50657;48.830;2.282;2022-08-27T08:35:26;24.70;48.40
47354;DHT22;50657;48.830;2.282;2022-08-27T08:37:53;24.80;48.30
47354;DHT22;50657;48.830;2.282;2022-08-27T08:40:26;25.00;48.20
47354;DHT22;50657;48.830;2.282;2022-08-27T08:42:55;25.10;47.80
47354;DHT22;50657;48.830;2.282;2022-08-27T08:45:25;25.30;47.70
47354;DHT22;50657;48.830;2.282;2022-08-27T08:47:57;25.40;47.30
47354;DHT22;50657;48.830;2.282;2022-08-27T08:50:33;25.60;46.90
47354;DHT22;50657;48.830;2.282;2022-08-27T08:53:06;25.70;46.50
47354;DHT22;50657;48.830;2.282;2022-08-27T08:55:40;25.80;46.10
47354;DHT22;50657;48.830;2.282;2022-08-27T08:58:14;26.00;45.80
47354;DHT22;50657;48.830;2.282;2022-08-27T09:00:43;26.00;45.40
47354;DHT22;50657;48.830;2.282;2022-08-27T09:03:12;26.20;45.10
47354;DHT22;50657;48.830;2.282;2022-08-27T09:05:44;26.20;44.70
47354;DHT22;50657;48.830;2.282;2022-08-27T09:08:17;26.30;45.00
47354;DHT22;50657;48.830;2.282;2022-08-27T09:10:50;26.40;44.10
47354;DHT22;50657;48.830;2.282;2022-08-27T09:13:21;26.40;43.80
47354;DHT22;50657;48.830;2.282;2022-08-27T09:15:52;26.50;43.60
47354;DHT22;50657;48.830;2.282;2022-08-27T09:18:20;26.60;43.40
47354;DHT22;50657;48.830;2.282;2022-08-27T09:20:50;26.60;43.20
47354;DHT22;50657;48.830;2.282;2022-08-27T09:23:25;26.70;43.10
47354;DHT22;50657;48.830;2.282;2022-08-27T09:25:52;26.80;43.10
47354;DHT22;50657;48.830;2.282;2022-08-27T09:28:21;26.90;43.00
47354;DHT22;50657;48.830;2.282;2022-08-27T09:31:10;27.00;43.30
47354;DHT22;50657;48.830;2.282;2022-08-27T09:33:38;27.10;42.40
47354;DHT22;50657;48.830;2.282;2022-08-27T09:36:10;27.20;42.00
47354;DHT22;50657;48.830;2.282;2022-08-27T09:38:41;27.40;41.70
47354;DHT22;50657;48.830;2.282;2022-08-27T09:41:19;27.60;41.40
47354;DHT22;50657;48.830;2.282;2022-08-27T09:43:56;27.70;41.20
47354;DHT22;50657;48.830;2.282;2022-08-27T09:46:24;27.80;40.50
47354;DHT22;50657;48.830;2.282;2022-08-27T09:48:52;27.90;40.10
47354;DHT22;50657;48.830;2.282;2022-08-27T09:51:22;28.00;40.00
47354;DHT22;50657;48.830;2.282;2022-08-27T09:53:52;28.10;39.80
47354;DHT22;50657;48.830;2.282;2022-08-27T09:56:25;28.30;39.70
47354;DHT22;50657;48.830;2.282;2022-08-27T09:58:59;28.40;39.50
47354;DHT22;50657;48.830;2.282;2022-08-27T10:01:28;28.60;39.30
47354;DHT22;50657;48.830;2.282;2022-08-27T10:04:04;28.70;38.70
47354;DHT22;50657;48.830;2.282;2022-08-27T10:06:33;28.80;37.80
47354;DHT22;50657;48.830;2.282;2022-08-27T10:09:05;29.00;37.40
47354;DHT22;50657;48.830;2.282;2022-08-27T10:11:38;29.10;37.10
47354;DHT22;50657;48.830;2.282;2022-08-27T10:14:10;29.30;36.80
47354;DHT22;50657;48.830;2.282;2022-08-27T10:17:00;29.40;36.30
47354;DHT22;50657;48.830;2.282;2022-08-27T10:19:45;29.60;36.00
47354;DHT22;50657;48.830;2.282;2022-08-27T10:22:25;29.80;35.80
47354;DHT22;50657;48.830;2.282;2022-08-27T10:25:02;30.10;35.60
47354;DHT22;50657;48.830;2.282;2022-08-27T10:27:38;30.30;35.10
47354;DHT22;50657;48.830;2.282;2022-08-27T10:30:11;30.60;35.30
47354;DHT22;50657;48.830;2.282;2022-08-27T10:32:50;30.80;34.20
47354;DHT22;50657;48.830;2.282;2022-08-27T10:35:21;31.10;33.60
47354;DHT22;50657;48.830;2.282;2022-08-27T10:38:05;31.30;33.30
47354;DHT22;50657;48.830;2.282;2022-08-27T10:40:36;31.50;32.90
47354;DHT22;50657;48.830;2.282;2022-08-27T10:43:19;31.70;32.60
47354;DHT22;50657;48.830;2.282;2022-08-27T10:45:53;31.90;32.30
47354;DHT22;50657;48.830;2.282;2022-08-27T10:48:28;32.10;32.10
47354;DHT22;50657;48.830;2.282;2022-08-27T10:51:04;32.20;31.80
47354;DHT22;50657;48.830;2.282;2022-08-27T10:53:41;32.30;31.60
47354;DHT22;50657;48.830;2.282;2022-08-27T10:56:14;32.40;31.50
47354;DHT22;50657;48.830;2.282;2022-08-27T10:58:54;32.60;31.20
47354;DHT22;50657;48.830;2.282;2022-08-27T11:01:33;32.70;30.90
47354;DHT22;50657;48.830;2.282;2022-08-27T11:04:06;32.90;30.70
47354;DHT22;50657;48.830;2.282;2022-08-27T11:06:37;32.90;30.30
47354;DHT22;50657;48.830;2.282;2022-08-27T11:09:12;33.10;30.50
47354;DHT22;50657;48.830;2.282;2022-08-27T11:11:43;33.10;30.40
47354;DHT22;50657;48.830;2.282;2022-08-27T11:14:20;33.20;30.40
47354;DHT22;50657;48.830;2.282;2022-08-27T11:16:54;33.30;30.40
47354;DHT22;50657;48.830;2.282;2022-08-27T11:19:26;33.50;30.30
47354;DHT22;50657;48.830;2.282;2022-08-27T11:22:02;33.50;30.10
47354;DHT22;50657;48.830;2.282;2022-08-27T11:24:37;33.50;30.00
47354;DHT22;50657;48.830;2.282;2022-08-27T11:27:08;33.40;30.00
47354;DHT22;50657;48.830;2.282;2022-08-27T11:29:38;33.30;30.00
47354;DHT22;50657;48.830;2.282;2022-08-27T11:32:15;33.20;30.00
47354;DHT22;50657;48.830;2.282;2022-08-27T11:34:49;33.20;30.00
47354;DHT22;50657;48.830;2.282;2022-08-27T11:37:45;33.10;29.90
47354;DHT22;50657;48.830;2.282;2022-08-27T11:40:28;32.90;30.10
47354;DHT22;50657;48.830;2.282;2022-08-27T11:43:03;32.80;30.50
47354;DHT22;50657;48.830;2.282;2022-08-27T11:45:33;32.70;30.60
47354;DHT22;50657;48.830;2.282;2022-08-27T11:48:15;32.60;30.70
47354;DHT22;50657;48.830;2.282;2022-08-27T11:50:52;32.50;30.70
47354;DHT22;50657;48.830;2.282;2022-08-27T11:53:24;32.40;30.80
47354;DHT22;50657;48.830;2.282;2022-08-27T11:55:54;32.30;30.90
47354;DHT22;50657;48.830;2.282;2022-08-27T11:58:27;32.20;31.20
47354;DHT22;50657;48.830;2.282;2022-08-27T12:00:56;32.10;31.20
47354;DHT22;50657;48.830;2.282;2022-08-27T12:03:27;32.10;31.20
47354;DHT22;50657;48.830;2.282;2022-08-27T12:06:09;32.00;31.00
47354;DHT22;50657;48.830;2.282;2022-08-27T12:08:36;32.00;31.20
47354;DHT22;50657;48.830;2.282;2022-08-27T12:11:15;31.90;31.30
47354;DHT22;50657;48.830;2.282;2022-08-27T12:13:51;31.80;31.50
47354;DHT22;50657;48.830;2.282;2022-08-27T12:16:22;31.70;31.70
47354;DHT22;50657;48.830;2.282;2022-08-27T12:19:04;31.60;31.80
47354;DHT22;50657;48.830;2.282;2022-08-27T12:21:42;31.60;31.70
47354;DHT22;50657;48.830;2.282;2022-08-27T12:24:27;31.60;32.10
47354;DHT22;50657;48.830;2.282;2022-08-27T12:27:15;31.50;32.10
47354;DHT22;50657;48.830;2.282;2022-08-27T12:29:48;31.50;32.10
47354;DHT22;50657;48.830;2.282;2022-08-27T12:32:24;31.40;32.10
47354;DHT22;50657;48.830;2.282;2022-08-27T12:34:58;31.40;32.10
47354;DHT22;50657;48.830;2.282;2022-08-27T12:37:28;31.40;32.20
47354;DHT22;50657;48.830;2.282;2022-08-27T12:39:57;31.30;32.20
47354;DHT22;50657;48.830;2.282;2022-08-27T12:42:25;31.30;32.20
47354;DHT22;50657;48.830;2.282;2022-08-27T12:44:54;31.30;32.20
47354;DHT22;50657;48.830;2.282;2022-08-27T12:47:21;31.20;32.10
47354;DHT22;50657;48.830;2.282;2022-08-27T12:49:52;31.20;32.10
47354;DHT22;50657;48.830;2.282;2022-08-27T12:52:44;31.20;32.00
47354;DHT22;50657;48.830;2.282;2022-08-27T12:55:21;31.20;32.10
47354;DHT22;50657;48.830;2.282;2022-08-27T12:58:02;31.10;32.10
47354;DHT22;50657;48.830;2.282;2022-08-27T13:00:37;31.10;32.20
47354;DHT22;50657;48.830;2.282;2022-08-27T13:03:19;31.10;32.10
47354;DHT22;50657;48.830;2.282;2022-08-27T13:05:49;31.10;32.20
47354;DHT22;50657;48.830;2.282;2022-08-27T13:08:24;31.00;32.10
47354;DHT22;50657;48.830;2.282;2022-08-27T13:10:52;31.00;32.00
47354;DHT22;50657;48.830;2.282;2022-08-27T13:13:22;31.00;32.60
47354;DHT22;50657;48.830;2.282;2022-08-27T13:15:52;31.00;32.00
47354;DHT22;50657;48.830;2.282;2022-08-27T13:18:21;31.00;31.90
47354;DHT22;50657;48.830;2.282;2022-08-27T13:20:59;31.00;31.90
47354;DHT22;50657;48.830;2.282;2022-08-27T13:23:27;31.00;31.90
47354;DHT22;50657;48.830;2.282;2022-08-27T13:25:56;31.00;31.90
47354;DHT22;50657;48.830;2.282;2022-08-27T13:28:30;31.00;32.10
47354;DHT22;50657;48.830;2.282;2022-08-27T13:30:59;31.00;32.00
47354;DHT22;50657;48.830;2.282;2022-08-27T13:33:30;31.00;31.90
47354;DHT22;50657;48.830;2.282;2022-08-27T13:35:58;31.00;31.90
47354;DHT22;50657;48.830;2.282;2022-08-27T13:38:29;31.00;32.00
47354;DHT22;50657;48.830;2.282;2022-08-27T13:40:59;31.00;32.30
47354;DHT22;50657;48.830;2.282;2022-08-27T13:43:32;31.00;32.50
47354;DHT22;50657;48.830;2.282;2022-08-27T13:46:06;31.00;32.70
47354;DHT22;50657;48.830;2.282;2022-08-27T13:48:38;31.00;32.60
47354;DHT22;50657;48.830;2.282;2022-08-27T13:51:06;31.00;32.70
47354;DHT22;50657;48.830;2.282;2022-08-27T13:53:35;31.10;33.00
47354;DHT22;50657;48.830;2.282;2022-08-27T13:56:23;31.10;33.20
47354;DHT22;50657;48.830;2.282;2022-08-27T13:58:52;31.10;33.20
47354;DHT22;50657;48.830;2.282;2022-08-27T14:01:28;31.20;33.00
47354;DHT22;50657;48.830;2.282;2022-08-27T14:03:58;31.20;32.80
47354;DHT22;50657;48.830;2.282;2022-08-27T14:06:28;31.30;32.70
47354;DHT22;50657;48.830;2.282;2022-08-27T14:08:57;31.40;32.40
47354;DHT22;50657;48.830;2.282;2022-08-27T14:11:25;31.40;32.30
47354;DHT22;50657;48.830;2.282;2022-08-27T14:13:55;31.50;32.30
47354;DHT22;50657;48.830;2.282;2022-08-27T14:16:26;31.60;32.50
47354;DHT22;50657;48.830;2.282;2022-08-27T14:19:02;31.60;32.30
47354;DHT22;50657;48.830;2.282;2022-08-27T14:21:30;31.60;32.80
47354;DHT22;50657;48.830;2.282;2022-08-27T14:23:57;31.70;32.90
47354;DHT22;50657;48.830;2.282;2022-08-27T14:26:25;31.80;33.10
47354;DHT22;50657;48.830;2.282;2022-08-27T14:28:53;31.80;33.90
47354;DHT22;50657;48.830;2.282;2022-08-27T14:31:21;31.80;33.40
47354;DHT22;50657;48.830;2.282;2022-08-27T14:33:48;31.90;33.70
47354;DHT22;50657;48.830;2.282;2022-08-27T14:36:17;32.00;33.80
47354;DHT22;50657;48.830;2.282;2022-08-27T14:38:46;32.00;33.80
47354;DHT22;50657;48.830;2.282;2022-08-27T14:41:14;32.10;34.60
47354;DHT22;50657;48.830;2.282;2022-08-27T14:43:41;32.10;34.00
47354;DHT22;50657;48.830;2.282;2022-08-27T14:46:16;32.10;33.90
47354;DHT22;50657;48.830;2.282;2022-08-27T14:48:44;32.20;34.20
47354;DHT22;50657;48.830;2.282;2022-08-27T14:51:13;32.10;34.10
47354;DHT22;50657;48.830;2.282;2022-08-27T14:53:42;32.10;34.30
47354;DHT22;50657;48.830;2.282;2022-08-27T14:56:09;32.20;33.90
47354;DHT22;50657;48.830;2.282;2022-08-27T14:58:36;32.20;34.20
47354;DHT22;50657;48.830;2.282;2022-08-27T15:01:04;32.20;34.40
47354;DHT22;50657;48.830;2.282;2022-08-27T15:03:34;32.30;34.60
47354;DHT22;50657;48.830;2.282;2022-08-27T15:06:04;32.30;34.60
47354;DHT22;50657;48.830;2.282;2022-08-27T15:08:31;32.40;34.80
47354;DHT22;50657;48.830;2.282;2022-08-27T15:10:59;32.40;34.90
47354;DHT22;50657;48.830;2.282;2022-08-27T15:13:26;32.40;35.00
47354;DHT22;50657;48.830;2.282;2022-08-27T15:15:53;32.50;35.10
47354;DHT22;50657;48.830;2.282;2022-08-27T15:18:20;32.50;35.10
47354;DHT22;50657;48.830;2.282;2022-08-27T15:20:49;32.50;35.00
47354;DHT22;50657;48.830;2.282;2022-08-27T15:23:16;32.60;35.00
47354;DHT22;50657;48.830;2.282;2022-08-27T15:25:44;32.60;35.00
47354;DHT22;50657;48.830;2.282;2022-08-27T15:28:11;32.60;34.90
47354;DHT22;50657;48.830;2.282;2022-08-27T15:30:38;32.60;35.60
47354;DHT22;50657;48.830;2.282;2022-08-27T15:33:05;32.60;35.00
47354;DHT22;50657;48.830;2.282;2022-08-27T15:35:33;32.60;35.00
47354;DHT22;50657;48.830;2.282;2022-08-27T15:38:01;32.70;34.90
47354;DHT22;50657;48.830;2.282;2022-08-27T15:40:31;32.70;34.90
47354;DHT22;50657;48.830;2.282;2022-08-27T15:43:02;32.70;35.10
47354;DHT22;50657;48.830;2.282;2022-08-27T15:45:31;32.70;35.30
47354;DHT22;50657;48.830;2.282;2022-08-27T15:47:58;32.70;35.50